createdAt,value
2023-06-04T00:00:32.767Z,62.96
2023-06-04T00:02:59.742Z,62.76
2023-06-04T00:05:26.613Z,62.76
2023-06-04T00:07:53.668Z,62.99
2023-06-04T00:10:20.400Z,63.08
2023-06-04T00:12:47.342Z,63.19
2023-06-04T00:15:17.500Z,63.08
2023-06-04T00:17:44.738Z,63.26
2023-06-04T00:20:12.445Z,63.20
2023-06-04T00:22:39.645Z,63.29
2023-06-04T00:25:06.583Z,63.25
2023-06-04T00:27:33.336Z,63.13
2023-06-04T00:30:00.251Z,63.01
2023-06-04T00:32:27.089Z,63.08
2023-06-04T00:34:58.960Z,63.19
2023-06-04T00:37:26.526Z,63.21
2023-06-04T00:39:53.309Z,63.40
2023-06-04T00:42:20.200Z,63.75
2023-06-04T00:44:46.961Z,63.94
2023-06-04T00:47:15.535Z,64.11
2023-06-04T00:49:43.025Z,64.13
2023-06-04T00:52:11.065Z,64.20
2023-06-04T00:54:39.426Z,64.36
2023-06-04T00:57:06.798Z,64.55
2023-06-04T00:59:35.353Z,64.58
2023-06-04T01:02:13.555Z,64.80
2023-06-04T01:04:50.399Z,65.37
2023-06-04T01:07:17.767Z,66.07
2023-06-04T01:09:47.824Z,66.22
2023-06-04T01:12:14.952Z,66.52
2023-06-04T01:14:42.395Z,66.77
2023-06-04T01:17:38.994Z,66.85
2023-06-04T01:20:13.052Z,67.00
2023-06-04T01:22:52.753Z,66.94
2023-06-04T01:25:27.535Z,67.13
2023-06-04T01:27:58.338Z,67.17
2023-06-04T01:30:31.717Z,67.38
2023-06-04T01:33:00.337Z,67.37
2023-06-04T01:35:29.315Z,67.28
2023-06-04T01:37:57.035Z,67.36
2023-06-04T01:40:24.946Z,66.99
2023-06-04T01:42:51.979Z,67.17
2023-06-04T01:45:19.018Z,67.26
2023-06-04T01:47:45.704Z,67.39
2023-06-04T01:50:12.581Z,67.52
2023-06-04T01:52:42.526Z,67.72
2023-06-04T01:55:15.777Z,67.90
2023-06-04T01:57:45.273Z,68.00
2023-06-04T02:00:13.313Z,67.95
2023-06-04T02:02:43.594Z,67.91
2023-06-04T02:09:23.105Z,67.58
2023-06-04T02:11:49.827Z,67.67
2023-06-04T02:14:16.486Z,67.68
2023-06-04T02:16:43.259Z,67.78
2023-06-04T02:19:09.990Z,68.33
2023-06-04T02:21:37.164Z,68.56
2023-06-04T02:24:04.143Z,68.84
2023-06-04T02:26:30.875Z,69.02
2023-06-04T02:28:57.640Z,69.04
2023-06-04T02:31:24.379Z,69.17
2023-06-04T02:33:51.090Z,69.20
2023-06-04T02:36:18.561Z,69.42
2023-06-04T02:38:45.462Z,69.66
2023-06-04T02:41:12.678Z,69.86
2023-06-04T02:43:39.413Z,70.23
2023-06-04T02:46:07.419Z,70.06
2023-06-04T02:48:34.283Z,70.14
2023-06-04T02:51:01.129Z,70.23
2023-06-04T02:53:27.935Z,70.42
2023-06-04T02:55:54.930Z,70.71
2023-06-04T02:58:22.900Z,70.81
2023-06-04T03:00:53.962Z,71.02
2023-06-04T03:03:20.688Z,71.00
2023-06-04T03:05:47.616Z,71.05
2023-06-04T03:08:14.399Z,71.06
2023-06-04T03:10:41.314Z,71.20
2023-06-04T03:13:08.076Z,71.16
2023-06-04T03:15:34.817Z,71.23
2023-06-04T03:18:01.788Z,71.21
2023-06-04T03:20:28.506Z,71.35
2023-06-04T03:22:55.314Z,71.32
2023-06-04T03:25:23.205Z,71.60
2023-06-04T03:27:51.002Z,71.60
2023-06-04T03:30:17.795Z,71.55
2023-06-04T03:32:56.290Z,71.82
2023-06-04T03:35:23.618Z,71.75
2023-06-04T03:37:50.424Z,71.86
2023-06-04T03:40:17.348Z,71.97
2023-06-04T03:42:45.980Z,72.04
2023-06-04T03:45:14.021Z,72.15
2023-06-04T03:47:41.214Z,72.16
2023-06-04T03:50:09.523Z,72.33
2023-06-04T03:52:37.048Z,72.21
2023-06-04T03:55:05.030Z,72.29
2023-06-04T03:57:33.832Z,72.48
2023-06-04T04:00:01.349Z,72.31
2023-06-04T04:02:28.437Z,72.32
2023-06-04T04:04:58.252Z,72.29
2023-06-04T04:07:25.572Z,72.02
2023-06-04T04:09:53.648Z,72.20
2023-06-04T04:12:20.867Z,72.18
2023-06-04T04:14:48.570Z,72.41
2023-06-04T04:17:16.381Z,72.60
2023-06-04T04:19:43.938Z,72.61
2023-06-04T04:22:14.207Z,72.83
2023-06-04T04:24:41.310Z,73.03
2023-06-04T04:27:12.263Z,73.04
2023-06-04T04:29:40.542Z,72.91
2023-06-04T04:32:11.731Z,73.11
2023-06-04T04:34:55.927Z,73.16
2023-06-04T04:37:31.558Z,72.99
2023-06-04T04:39:58.539Z,72.82
2023-06-04T04:42:26.260Z,73.05
2023-06-04T04:44:53.745Z,73.17
2023-06-04T04:47:22.561Z,72.76
2023-06-04T04:49:51.041Z,72.69
2023-06-04T04:52:18.224Z,72.68
2023-06-04T04:54:45.575Z,72.64
2023-06-04T04:57:14.123Z,72.90
2023-06-04T04:59:43.707Z,72.90
2023-06-04T05:02:10.807Z,72.59
2023-06-04T05:04:38.160Z,72.52
2023-06-04T05:07:05.409Z,72.58
2023-06-04T05:09:32.337Z,72.78
2023-06-04T05:11:59.804Z,72.80
2023-06-04T05:14:26.809Z,72.59
2023-06-04T05:16:53.873Z,72.69
2023-06-04T05:19:20.989Z,72.68
2023-06-04T05:21:49.926Z,72.39
2023-06-04T05:24:17.553Z,72.23
2023-06-04T05:26:45.405Z,72.03
2023-06-04T05:29:16.499Z,72.01
2023-06-04T05:31:44.204Z,71.83
2023-06-04T05:34:17.718Z,71.55
2023-06-04T05:36:44.930Z,71.72
2023-06-04T05:39:12.036Z,71.67
2023-06-04T05:41:48.105Z,71.61
2023-06-04T05:44:15.353Z,71.58
2023-06-04T05:46:42.918Z,71.47
2023-06-04T05:49:11.265Z,71.49
2023-06-04T05:51:38.204Z,71.61
2023-06-04T05:54:05.022Z,70.97
2023-06-04T05:56:32.391Z,70.83
2023-06-04T05:58:59.911Z,70.71
2023-06-04T06:01:27.472Z,70.69
2023-06-04T06:03:54.649Z,70.63
2023-06-04T06:06:22.777Z,70.25
2023-06-04T06:13:14.632Z,70.54
2023-06-04T06:15:41.698Z,70.70
2023-06-04T06:18:08.633Z,70.52
2023-06-04T06:20:35.441Z,70.44
2023-06-04T06:31:39.527Z,70.64
2023-06-04T06:34:06.624Z,70.48
2023-06-04T06:36:33.972Z,70.56
2023-06-04T06:39:01.175Z,70.54
2023-06-04T06:41:27.994Z,70.67
2023-06-04T06:43:54.819Z,70.67
2023-06-04T06:46:22.117Z,70.56
2023-06-04T06:48:49.760Z,70.59
2023-06-04T06:51:16.702Z,70.69
2023-06-04T06:53:44.230Z,70.50
2023-06-04T06:56:11.112Z,70.46
2023-06-04T06:58:37.833Z,70.33
2023-06-04T07:01:04.718Z,70.42
2023-06-04T07:03:32.489Z,70.21
2023-06-04T07:05:59.559Z,70.25
2023-06-04T07:08:26.263Z,70.19
2023-06-04T07:10:53.021Z,70.24
2023-06-04T07:13:19.710Z,70.38
2023-06-04T07:15:46.545Z,70.36
2023-06-04T07:18:13.488Z,70.34
2023-06-04T07:20:40.194Z,70.40
2023-06-04T07:23:08.090Z,70.47
2023-06-04T07:25:35.511Z,70.29
2023-06-04T07:28:05.056Z,70.36
2023-06-04T07:30:35.389Z,70.48
2023-06-04T07:33:02.121Z,70.51
2023-06-04T07:35:29.218Z,70.50
2023-06-04T07:37:56.221Z,70.45
2023-06-04T07:44:49.588Z,70.08
2023-06-04T07:51:38.320Z,69.87
2023-06-04T07:54:05.236Z,69.99
2023-06-04T07:56:32.011Z,69.80
2023-06-04T07:58:58.756Z,69.80
2023-06-04T08:01:27.570Z,69.91
2023-06-04T08:03:54.720Z,69.88
2023-06-04T08:06:21.631Z,69.55
2023-06-04T08:08:49.688Z,69.31
2023-06-04T08:11:17.092Z,69.08
2023-06-04T08:13:43.869Z,68.68
2023-06-04T08:16:12.062Z,68.19
2023-06-04T08:18:42.352Z,67.92
2023-06-04T08:21:13.115Z,67.89
2023-06-04T08:23:40.109Z,67.54
2023-06-04T08:26:09.545Z,67.35
2023-06-04T08:28:36.882Z,67.37
2023-06-04T08:31:03.653Z,67.06
2023-06-04T08:33:30.506Z,66.96
2023-06-04T08:35:57.324Z,66.49
2023-06-04T08:38:24.874Z,66.03
2023-06-04T08:40:54.418Z,65.25
2023-06-04T08:43:21.169Z,64.55
2023-06-04T08:45:51.346Z,63.57
2023-06-04T08:48:19.635Z,63.64
2023-06-04T08:50:48.945Z,63.82
2023-06-04T08:53:16.979Z,63.70
2023-06-04T08:55:44.256Z,63.41
2023-06-04T08:58:14.092Z,63.28
2023-06-04T09:00:40.947Z,62.92
2023-06-04T09:03:08.477Z,62.98
2023-06-04T09:05:36.439Z,63.03
2023-06-04T09:08:05.827Z,62.95
2023-06-04T09:10:33.579Z,63.06
2023-06-04T09:13:04.590Z,62.99
2023-06-04T09:15:31.266Z,63.27
2023-06-04T09:17:57.978Z,63.20
2023-06-04T09:20:26.259Z,63.03
2023-06-04T09:22:52.936Z,62.59
2023-06-04T09:25:28.472Z,62.23
2023-06-04T09:27:58.875Z,62.05
2023-06-04T09:30:25.783Z,62.10
2023-06-04T09:32:54.684Z,61.93
2023-06-04T09:35:21.885Z,61.81
2023-06-04T09:37:57.102Z,61.47
2023-06-04T09:40:25.200Z,61.47
2023-06-04T09:42:56.241Z,61.46
2023-06-04T09:45:36.604Z,61.08
2023-06-04T09:48:09.067Z,60.59
2023-06-04T09:50:40.471Z,59.84
2023-06-04T09:53:23.314Z,59.14
2023-06-04T09:56:01.054Z,58.75
2023-06-04T09:58:29.697Z,58.75
2023-06-04T10:01:01.462Z,58.49
2023-06-04T10:03:34.189Z,57.55
2023-06-04T10:06:05.647Z,57.04
2023-06-04T10:08:35.231Z,56.52
2023-06-04T10:11:03.934Z,55.77
2023-06-04T10:13:32.625Z,55.06
2023-06-04T10:16:00.698Z,54.18
2023-06-04T10:18:31.961Z,52.52
2023-06-04T10:20:59.294Z,51.93
2023-06-04T10:27:47.769Z,51.13
2023-06-04T10:30:14.609Z,50.44
2023-06-04T10:32:42.060Z,50.10
2023-06-04T10:35:09.385Z,50.16
2023-06-04T10:37:36.391Z,49.81
2023-06-04T10:40:06.117Z,49.68
2023-06-04T10:42:43.971Z,49.30
2023-06-04T10:45:12.183Z,49.13
2023-06-04T10:47:42.211Z,49.12
2023-06-04T10:50:14.850Z,49.18
2023-06-04T10:52:56.537Z,48.39
2023-06-04T10:55:23.360Z,47.65
2023-06-04T10:58:09.222Z,47.45
2023-06-04T11:00:37.423Z,47.11
2023-06-04T11:03:09.813Z,46.68
2023-06-04T11:05:49.207Z,46.04
2023-06-04T11:08:27.261Z,45.62
2023-06-04T11:10:54.006Z,45.80
2023-06-04T11:13:26.980Z,45.61
2023-06-04T11:15:53.865Z,45.31
2023-06-04T11:18:22.996Z,44.88
2023-06-04T11:20:51.823Z,44.25
2023-06-04T11:23:19.039Z,44.43
2023-06-04T11:25:46.880Z,44.49
2023-06-04T11:28:19.496Z,44.15
2023-06-04T11:31:07.418Z,43.94
2023-06-04T11:33:46.429Z,43.90
2023-06-04T11:36:30.409Z,43.05
2023-06-04T11:39:07.119Z,42.85
2023-06-04T11:41:37.452Z,43.22
2023-06-04T11:44:08.501Z,42.90
2023-06-04T11:50:44.824Z,43.83
2023-06-04T11:53:11.605Z,44.10
2023-06-04T11:55:40.222Z,44.29
2023-06-04T11:58:07.124Z,44.21
2023-06-04T12:00:34.018Z,43.72
2023-06-04T12:03:01.051Z,43.72
2023-06-04T12:05:32.832Z,43.10
2023-06-04T12:08:12.215Z,42.99
2023-06-04T12:10:43.806Z,42.89
2023-06-04T12:13:11.471Z,43.04
2023-06-04T12:15:38.324Z,42.98
2023-06-04T12:18:08.090Z,43.12
2023-06-04T12:20:37.363Z,43.29
2023-06-04T12:23:05.937Z,43.07
2023-06-04T12:25:35.464Z,42.79
2023-06-04T12:28:04.156Z,42.88
2023-06-04T12:30:38.819Z,42.84
2023-06-04T12:33:05.845Z,42.97
2023-06-04T12:35:32.859Z,42.90
2023-06-04T12:37:59.874Z,43.03
2023-06-04T12:44:53.169Z,42.67
2023-06-04T12:47:22.374Z,41.48
2023-06-04T12:49:49.447Z,41.51
2023-06-04T12:52:18.587Z,41.72
2023-06-04T12:54:45.715Z,40.73
2023-06-04T12:57:12.510Z,41.28
2023-06-04T12:59:39.235Z,41.02
2023-06-04T13:02:06.892Z,41.51
2023-06-04T13:04:33.692Z,41.23
2023-06-04T13:07:01.123Z,41.16
2023-06-04T13:13:48.187Z,40.44
2023-06-04T13:16:15.478Z,40.93
2023-06-04T13:18:42.230Z,40.81
2023-06-04T13:25:33.721Z,40.78
2023-06-04T13:28:01.572Z,41.02
2023-06-04T13:34:56.181Z,41.59
2023-06-04T13:41:51.037Z,41.55
2023-06-04T13:48:31.364Z,41.39
2023-06-04T13:50:58.122Z,41.38
2023-06-04T13:53:24.818Z,41.68
2023-06-04T13:55:58.880Z,41.73
2023-06-04T13:58:28.862Z,42.00
2023-06-04T14:00:55.787Z,41.24
2023-06-04T14:03:22.865Z,40.66
2023-06-04T14:05:50.077Z,40.89
2023-06-04T14:08:17.121Z,41.13
2023-06-04T14:10:44.154Z,41.14
2023-06-04T14:13:11.119Z,40.69
2023-06-04T14:15:38.642Z,40.74
2023-06-04T14:18:06.229Z,40.96
2023-06-04T14:20:33.162Z,40.86
2023-06-04T14:23:00.891Z,40.64
2023-06-04T14:34:37.048Z,40.73
2023-06-04T14:37:03.849Z,41.05
2023-06-04T14:39:30.611Z,41.00
2023-06-04T14:41:57.313Z,41.10
2023-06-04T14:44:24.107Z,41.28
2023-06-04T14:46:52.072Z,41.40
2023-06-04T14:49:19.347Z,41.55
2023-06-04T14:51:46.674Z,41.65
2023-06-04T14:54:14.354Z,41.49
2023-06-04T14:56:41.120Z,41.57
2023-06-04T14:59:10.466Z,41.72
2023-06-04T15:01:38.127Z,41.81
2023-06-04T15:04:06.067Z,42.18
2023-06-04T15:06:33.202Z,42.65
2023-06-04T15:09:00.328Z,42.29
2023-06-04T15:11:27.692Z,42.43
2023-06-04T15:13:54.919Z,42.34
2023-06-04T15:16:40.539Z,42.36
2023-06-04T15:19:07.650Z,42.78
2023-06-04T15:21:34.509Z,42.97
2023-06-04T15:24:01.391Z,42.76
2023-06-04T15:26:28.379Z,43.23
2023-06-04T15:28:57.668Z,43.47
2023-06-04T15:31:24.729Z,43.47
2023-06-04T15:33:51.850Z,43.44
2023-06-04T15:36:18.653Z,43.68
2023-06-04T15:38:45.602Z,43.77
2023-06-04T15:41:12.514Z,44.14
2023-06-04T15:43:39.188Z,44.40
2023-06-04T15:46:06.294Z,44.32
2023-06-04T15:52:40.308Z,45.21
2023-06-04T15:55:07.161Z,45.40
2023-06-04T15:57:34.007Z,45.53
2023-06-04T16:00:00.785Z,45.70
2023-06-04T16:02:27.647Z,45.70
2023-06-04T16:04:54.391Z,46.02
2023-06-04T16:11:38.198Z,46.82
2023-06-04T16:14:06.040Z,46.96
2023-06-04T16:16:33.627Z,47.37
2023-06-04T16:19:00.450Z,47.45
2023-06-04T16:21:27.325Z,47.55
2023-06-04T16:28:14.082Z,47.99
2023-06-04T16:30:41.430Z,47.93
2023-06-04T16:33:08.435Z,47.95
2023-06-04T16:35:35.300Z,48.07
2023-06-04T16:38:02.122Z,48.44
2023-06-04T16:40:28.860Z,48.72
2023-06-04T16:42:55.954Z,49.24
2023-06-04T16:45:23.033Z,49.39
2023-06-04T16:47:50.253Z,49.54
2023-06-04T16:50:16.992Z,49.91
2023-06-04T16:52:43.712Z,50.14
2023-06-04T16:55:10.717Z,50.20
2023-06-04T16:57:38.937Z,50.86
2023-06-04T17:00:17.317Z,50.92
2023-06-04T17:07:19.373Z,51.30
2023-06-04T17:14:00.002Z,51.22
2023-06-04T17:16:26.897Z,51.20
2023-06-04T17:18:53.618Z,51.39
2023-06-04T17:21:20.435Z,51.74
2023-06-04T17:23:49.361Z,51.94
2023-06-04T17:26:16.410Z,52.33
2023-06-04T17:28:43.334Z,51.73
2023-06-04T17:35:36.435Z,54.58
2023-06-04T17:38:03.257Z,55.16
2023-06-04T17:40:29.922Z,56.17
2023-06-04T17:42:56.683Z,56.59
2023-06-04T17:45:23.606Z,57.45
2023-06-04T17:47:50.533Z,58.30
2023-06-04T17:50:17.325Z,58.91
2023-06-04T17:52:48.100Z,59.48
2023-06-04T17:55:16.103Z,60.11
2023-06-04T17:57:43.175Z,60.31
2023-06-04T18:00:10.936Z,60.47
2023-06-04T18:02:40.459Z,60.68
2023-06-04T18:05:08.837Z,60.16
2023-06-04T18:07:36.458Z,60.11
2023-06-04T18:10:03.498Z,59.68
2023-06-04T18:12:32.774Z,58.71
2023-06-04T18:15:01.220Z,58.14
2023-06-04T18:21:48.534Z,58.59
2023-06-04T18:28:29.330Z,59.32
2023-06-04T18:30:56.722Z,59.71
2023-06-04T18:37:30.646Z,61.27
2023-06-04T18:39:57.373Z,61.43
2023-06-04T18:42:30.615Z,61.14
2023-06-04T18:44:58.329Z,61.38
2023-06-04T18:47:25.466Z,62.04
2023-06-04T18:49:52.434Z,62.68
2023-06-04T18:52:19.337Z,63.36
2023-06-04T18:54:47.658Z,63.93
2023-06-04T18:57:15.621Z,64.74
2023-06-04T18:59:42.463Z,65.00
2023-06-04T19:02:09.907Z,65.67
2023-06-04T19:08:58.595Z,66.70
2023-06-04T19:15:38.933Z,66.41
2023-06-04T19:18:08.632Z,66.39
2023-06-04T19:20:36.101Z,66.09
2023-06-04T19:23:03.115Z,66.74
2023-06-04T19:25:30.356Z,66.52
2023-06-04T19:27:57.437Z,66.59
2023-06-04T19:30:26.777Z,66.63
2023-06-04T19:32:54.615Z,66.56
2023-06-04T19:35:23.255Z,66.56
2023-06-04T19:37:50.346Z,66.62
2023-06-04T19:44:27.634Z,66.96
2023-06-04T19:51:16.807Z,67.21
2023-06-04T19:53:43.650Z,67.49
2023-06-04T19:56:10.698Z,68.01
2023-06-04T19:58:37.711Z,68.21
2023-06-04T20:01:05.187Z,68.13
2023-06-04T20:03:33.586Z,67.93
2023-06-04T20:06:04.993Z,67.94
2023-06-04T20:08:33.020Z,67.72
2023-06-04T20:11:00.309Z,68.26
2023-06-04T20:13:27.370Z,68.07
2023-06-04T20:15:54.312Z,67.88
2023-06-04T20:18:22.980Z,67.83
2023-06-04T20:20:53.240Z,68.23
2023-06-04T20:23:20.297Z,68.62
2023-06-04T20:30:00.798Z,68.21
2023-06-04T20:32:27.669Z,68.43
2023-06-04T20:34:54.385Z,68.36
2023-06-04T20:37:23.335Z,68.61
2023-06-04T20:39:50.322Z,68.73
2023-06-04T20:42:17.222Z,69.49
2023-06-04T20:44:44.009Z,70.03
2023-06-04T20:51:24.863Z,70.36
2023-06-04T20:53:51.991Z,70.27
2023-06-04T21:00:32.763Z,70.41
2023-06-04T21:02:59.546Z,70.48
2023-06-04T21:09:40.396Z,70.34
2023-06-04T21:16:27.768Z,70.17
2023-06-04T21:18:54.657Z,69.96
2023-06-04T21:21:21.778Z,69.98
2023-06-04T21:23:48.592Z,69.99
2023-06-04T21:26:15.316Z,69.87
2023-06-04T21:28:41.965Z,69.68
2023-06-04T21:31:09.032Z,69.40
2023-06-04T21:33:35.959Z,69.41
2023-06-04T21:36:02.693Z,69.19
2023-06-04T21:38:29.431Z,69.26
2023-06-04T21:40:56.181Z,69.48
2023-06-04T21:43:23.225Z,69.50
2023-06-04T21:45:50.596Z,69.54
2023-06-04T21:48:17.355Z,69.85
2023-06-04T21:50:44.112Z,69.87
2023-06-04T21:53:10.796Z,70.02
2023-06-04T21:55:37.523Z,69.70
2023-06-04T21:58:04.887Z,69.24
2023-06-04T22:00:31.757Z,69.30
2023-06-04T22:02:58.993Z,69.57
2023-06-04T22:05:26.022Z,69.70
2023-06-04T22:07:52.700Z,69.82
2023-06-04T22:10:19.438Z,69.70
2023-06-04T22:12:46.445Z,69.79
2023-06-04T22:15:13.729Z,69.82
2023-06-04T22:17:41.218Z,69.96
2023-06-04T22:20:08.446Z,69.78
2023-06-04T22:22:36.266Z,69.83
2023-06-04T22:25:03.049Z,69.75
2023-06-04T22:27:29.765Z,69.83
2023-06-04T22:29:56.543Z,70.00
2023-06-04T22:32:23.586Z,70.13
2023-06-04T22:34:50.864Z,70.20
2023-06-04T22:37:17.665Z,70.26
2023-06-04T22:39:44.362Z,70.66
2023-06-04T22:42:11.217Z,70.82
2023-06-04T22:44:38.233Z,70.69
2023-06-04T22:47:05.379Z,70.82
2023-06-04T22:49:32.285Z,70.98
2023-06-04T22:51:59.223Z,71.15
2023-06-04T22:54:26.184Z,71.32
2023-06-04T22:56:52.896Z,71.44
2023-06-04T22:59:19.671Z,71.78
2023-06-04T23:01:46.526Z,71.89
2023-06-04T23:04:13.610Z,72.04
2023-06-04T23:06:40.514Z,72.11
2023-06-04T23:09:09.853Z,72.08
2023-06-04T23:11:36.635Z,71.97
2023-06-04T23:14:03.316Z,71.93
2023-06-04T23:16:30.107Z,71.86
2023-06-04T23:18:57.262Z,71.86
2023-06-04T23:21:24.177Z,72.05
2023-06-04T23:23:51.544Z,72.16
2023-06-04T23:26:18.461Z,72.31
2023-06-04T23:28:45.233Z,72.48
2023-06-04T23:31:11.900Z,72.53
2023-06-04T23:33:38.793Z,72.78
2023-06-04T23:36:05.971Z,72.95
2023-06-04T23:38:32.765Z,73.17
2023-06-04T23:40:59.500Z,73.58
2023-06-04T23:43:26.177Z,73.81
2023-06-04T23:45:52.976Z,73.84
2023-06-04T23:48:19.796Z,74.09
2023-06-04T23:50:46.684Z,74.21
2023-06-04T23:53:13.431Z,74.62
2023-06-04T23:55:40.770Z,74.59
2023-06-04T23:58:07.587Z,74.64
